North Hampton, NH (03862)

7:47 AM EDT on August 28, 2014 (GMT -0400)
Hampton Airfield 7B3 | Change Station
CLOSE
Current Station
Personal Weather Station
Location: North Hampton, NH
Elevation: 93 ft
Nearby Weather Stations

Elev 93 ft 42.96 °N, 70.83 °W | Updated 1 minute ago

Partly Cloudy
Partly Cloudy
68.2 °F
Feels Like 68.2 °F
N
5.0
Wind Variable Wind from NW
Gusts 6.0 mph

Today
High -- | Low -- °F
--% Chance of Precip.
Yesterday
High -- | Low -- °F
Precip. -- in
6:03 AM 7:24 PM
Waxing Crescent, 8% visible
Pressure 29.83 in
Visibility 10.0 miles
Clouds Few 6000 ft
Dew Point 61 °F
Humidity 77%
Rainfall 0.00 in
Snow Depth Not available.
UV 0 out of 12
Pollen 7.80 out of 12
Ozone Good
PM2.5 Good
Flu Activity Not available.
METAR KPSM 281058Z 31006KT 10SM FEW060 19/15 A2982 RMK AO2A SLP101 T01910153

More Conditions Fewer Conditions

Pressure 29.83 in
Visibility 10.0 miles
Clouds Few 6000 ft
Dew Point 61 °F
Humidity 77%
Rainfall 0.00 in
Snow Depth Not available.
UV 0 out of 12
Pollen 7.80 out of 12
Ozone Good
PM2.5 Good
Flu Activity Not available.
METAR KPSM 281058Z 31006KT 10SM FEW060 19/15 A2982 RMK AO2A SLP101 T01910153

More Conditions Fewer Conditions

10-Day Weather Forecast

Almanac

Astronomy

Aug. 28, 2014 Rise Set
Actual Time 6:03 AM EDT 7:24 PM EDT
Civil Twilight 5:33 AM EDT 7:54 PM EDT
Nautical Twilight 4:58 AM EDT 8:29 PM EDT
Astronomical Twilight 4:20 AM EDT 9:07 PM EDT
Moon 8:58 AM EDT 8:41 PM EDT
Length of Visible Light 14h 20m
Length of Day
13h 21m
Tomorrow will be 2m 46s shorter.
Waxing Crescent, 8% of the Moon is Illuminated
Today
Waxing Crescent
Sep 2
First Quarter
Sep 8
Full
Sep 15
Last Quarter
Sep 24
New

Today's Extremes

State Highs State Lows

Community

WunderPhotos

Upload Photos

1,747,929 photos uploaded!

Nearby

Air Quality

  Air Quality AQ Index Pollutant
Yesterday Good
PM2.5
Yesterday Good
OZONE
Current Good
PM2.5
Current Good
OZONE
Thursday Good
PM2.5
Thursday Good
OZONE

Snow Depth

Station Depth Elevation
No new snow has been reported.

Earthquake Activity

City Distance Mag. Time & Date
No recent earthquake activity has been reported nearby.
Minimum magnitude displayed is 2.5.

Coastal Water Temperatures

Place Temperature
Wells, ME 59.0 °F
Portland, ME 63.0 °F

Nearby Weather Stations